Aérodrome :
LOGIN :

S'inscrire | Disclaimer

   EN    FR    IT 

 










Légende :    VFR   VFR Marginal   IFR   IFR Intensif   IFR Très Intensif
Visi : 
Plafond : 
>= 8 km
>= 3000ft
5 à 8 km
1000 à 3000 ft
1500m à 5 km
500 à 1000 ft
800 à 1500m
200 à 500 ft
< 800m
< 200 ft
Symboles :   Orages  Brouillard  Fortes neiges  Fortes précipitations  Vent > 20 kt
SIGMETs :   Divers  Orages  Givrage  Turbulence  Onde Orograph.  Cendres Volcan.






- Altitude de l'aérodrome : 479 ft
- Code IATA : DOL


LFRG - Deauville

DERNIER METAR :
  • 070330Z AUTO 23001KT 0400 0350 R30/0500N FG VV/// 02/02 Q1021

METARs EXPIRÉS :
  • 070300Z AUTO 25004KT 0450 R30/0450D FG VV/// ///TCU 03/03 Q1021
  • 070230Z AUTO 00000KT 0700 0500 R30/1100D FG BKN028 OVC046 03/03 Q1021
  • 070200Z AUTO VRB01KT 0800 0650 R30/1100U FG SCT018 BKN024 BKN030 03/03 Q1022
  • 070130Z AUTO 00000KT 0550 0500 R30/0600N FG VV/// ///TCU 03/03 Q1021
  • 070100Z AUTO 00000KT 0700 0550 R30/1100N FG VV/// 03/03 Q1022

Prévision TAF périmée.
ATIS : +33 2 31 65 65 36



MET'MAP, la Météo Aéronautique d'un coup d'oeil ! - Copyright ORBIFLY Décembre 2007 - Disclaimer

ORBIFLY MET'MAP TEAM :

Programmation & Développement : Alexandra Zaïnal
Sur une idée originale de : Baudouin d'Aumeries
Soutien technique & logistique : Manuel Goepfert
Assistance : Marc-Olivier Méhu




SOURCES & CREDITS :

   NOAA